Terminal Aerodrome Forecast
Issued by NWS Pocatello, ID

Home | Current Version | Previous Version | Text Only | Print | Product List | Glossary On
Versions: 1 2 3 4 5 6 7 8 9 10 11 12 13 14 15 16
668
FTUS45 KPIH 212322
TAFIDA
TAF
KIDA 212322Z 2200/2224 21015G25KT P6SM OVC090
     FM220400 20015KT P6SM VCSH BKN030 OVC040
     FM220600 20011KT P6SM -SHRA BKN025 OVC035
     FM221200 21015G25KT P6SM SCT025 BKN040 BKN100
     FM221800 21020G30KT P6SM SCT025 BKN040=

USA.gov is the U.S. government's official web portal to all federal, state and local government web resources and services.